UAL1123 MMUN-KIAH
Flight info
| Callsign | UAL1123 |
|---|---|
| Flight time | 1h 58m |
| Altitude | 34000 |
| Route | NOSUG2A NOSUG UT27 OMVIP UT45 ALKIM DCT KEHLI A766 KELPP NNCEE2 |
| Aircraft | B38M/M-SDE1FGHILORVWXY/HB1 |
Departure
| Time | 2026-05-07 23:53 |
|---|---|
| Airport | Cancún International Airport (MMUN) |
Arrival
| Time | 2026-05-08 01:51 |
|---|---|
| Airport | George Bush Intercontinental Airport (KIAH) |
| Time | Latitude | Longitude | Altitude | Speed | Heading |
|---|---|---|---|---|---|
| 2026-05-07 23:16 | 21.03702 | -86.86693 | 31 ft | 0 kts | 304° |
| 2026-05-07 23:42 | 21.03700 | -86.86688 | 31 ft | 4 kts | 304° |
| 2026-05-07 23:42 | 21.03684 | -86.86665 | 31 ft | 4 kts | 302° |
| 2026-05-07 23:42 | 21.03673 | -86.86639 | 31 ft | 4 kts | 278° |
| 2026-05-07 23:43 | 21.03676 | -86.86613 | 31 ft | 4 kts | 237° |
| 2026-05-07 23:43 | 21.03687 | -86.86601 | 31 ft | 1 kts | 213° |
| 2026-05-07 23:43 | 21.03689 | -86.86600 | 31 ft | 0 kts | 213° |
| 2026-05-07 23:47 | 21.03677 | -86.86608 | 31 ft | 7 kts | 213° |
| 2026-05-07 23:47 | 21.03587 | -86.86672 | 31 ft | 22 kts | 213° |
| 2026-05-07 23:47 | 21.03440 | -86.86773 | 32 ft | 27 kts | 213° |
| 2026-05-07 23:48 | 21.03347 | -86.86866 | 32 ft | 15 kts | 258° |
| 2026-05-07 23:48 | 21.03393 | -86.86961 | 32 ft | 15 kts | 301° |
| 2026-05-07 23:48 | 21.03460 | -86.87073 | 33 ft | 22 kts | 303° |
| 2026-05-07 23:48 | 21.03568 | -86.87250 | 33 ft | 34 kts | 304° |
| 2026-05-07 23:49 | 21.03679 | -86.87423 | 34 ft | 21 kts | 304° |
| 2026-05-07 23:49 | 21.03764 | -86.87560 | 33 ft | 23 kts | 304° |
| 2026-05-07 23:49 | 21.03857 | -86.87709 | 33 ft | 25 kts | 303° |
| 2026-05-07 23:49 | 21.03957 | -86.87871 | 33 ft | 27 kts | 303° |
| 2026-05-07 23:50 | 21.04067 | -86.88041 | 33 ft | 29 kts | 303° |
| 2026-05-07 23:50 | 21.04180 | -86.88226 | 33 ft | 30 kts | 303° |
| 2026-05-07 23:50 | 21.04302 | -86.88415 | 33 ft | 32 kts | 306° |
| 2026-05-07 23:50 | 21.04425 | -86.88617 | 33 ft | 33 kts | 302° |
| 2026-05-07 23:51 | 21.04558 | -86.88823 | 33 ft | 34 kts | 303° |
| 2026-05-07 23:51 | 21.04644 | -86.89000 | 33 ft | 14 kts | 255° |
| 2026-05-07 23:51 | 21.04586 | -86.89048 | 34 ft | 11 kts | 213° |
| 2026-05-07 23:51 | 21.04521 | -86.89084 | 34 ft | 7 kts | 174° |
| 2026-05-07 23:52 | 21.04500 | -86.89055 | 34 ft | 5 kts | 110° |
| 2026-05-07 23:52 | 21.04472 | -86.89003 | 35 ft | 14 kts | 122° |
| 2026-05-07 23:52 | 21.04305 | -86.88737 | 37 ft | 77 kts | 124° |
| 2026-05-07 23:52 | 21.03892 | -86.88068 | 36 ft | 136 kts | 123° |
| 2026-05-07 23:53 | 21.03287 | -86.87095 | 156 ft | 171 kts | 123° |
| 2026-05-07 23:53 | 21.02651 | -86.85976 | 719 ft | 176 kts | 122° |
| 2026-05-07 23:53 | 21.01994 | -86.84843 | 1359 ft | 185 kts | 125° |
| 2026-05-07 23:53 | 21.01406 | -86.83546 | 1817 ft | 207 kts | 104° |
| 2026-05-07 23:54 | 21.01559 | -86.81952 | 2348 ft | 231 kts | 68° |
| 2026-05-07 23:54 | 21.02648 | -86.80634 | 3115 ft | 247 kts | 36° |
| 2026-05-07 23:54 | 21.04297 | -86.79866 | 3652 ft | 269 kts | 21° |
| 2026-05-07 23:54 | 21.06096 | -86.79250 | 4402 ft | 270 kts | 22° |
| 2026-05-07 23:55 | 21.07865 | -86.78590 | 5321 ft | 270 kts | 23° |
| 2026-05-07 23:55 | 21.09658 | -86.77935 | 6082 ft | 280 kts | 17° |
| 2026-05-07 23:55 | 21.11630 | -86.77776 | 6773 ft | 290 kts | 354° |
| 2026-05-07 23:55 | 21.13571 | -86.78365 | 7520 ft | 297 kts | 344° |
| 2026-05-07 23:56 | 21.15563 | -86.78985 | 8238 ft | 298 kts | 349° |
| 2026-05-07 23:56 | 21.17581 | -86.79496 | 9043 ft | 298 kts | 349° |
| 2026-05-07 23:56 | 21.19611 | -86.79959 | 9849 ft | 299 kts | 352° |
| 2026-05-07 23:56 | 21.21662 | -86.80386 | 10523 ft | 302 kts | 352° |
| 2026-05-07 23:57 | 21.23713 | -86.80800 | 11205 ft | 305 kts | 352° |
| 2026-05-07 23:57 | 21.25819 | -86.81217 | 11908 ft | 310 kts | 353° |
| 2026-05-07 23:57 | 21.27956 | -86.81635 | 12652 ft | 314 kts | 352° |
| 2026-05-07 23:57 | 21.30121 | -86.82057 | 13402 ft | 318 kts | 352° |
| 2026-05-07 23:58 | 21.32318 | -86.82485 | 14102 ft | 323 kts | 352° |
| 2026-05-07 23:58 | 21.34538 | -86.82916 | 14814 ft | 326 kts | 352° |
| 2026-05-07 23:58 | 21.36781 | -86.83353 | 15519 ft | 330 kts | 352° |
| 2026-05-07 23:58 | 21.39051 | -86.83794 | 16197 ft | 334 kts | 353° |
| 2026-05-07 23:59 | 21.41360 | -86.84243 | 16727 ft | 344 kts | 352° |
| 2026-05-07 23:59 | 21.43782 | -86.84716 | 16935 ft | 363 kts | 352° |
| 2026-05-07 23:59 | 21.46319 | -86.85209 | 17237 ft | 377 kts | 351° |
| 2026-05-07 23:59 | 21.48920 | -86.85717 | 17802 ft | 381 kts | 352° |
| 2026-05-08 00:00 | 21.51544 | -86.86228 | 18364 ft | 385 kts | 351° |
| 2026-05-08 00:00 | 21.54194 | -86.86745 | 18853 ft | 389 kts | 351° |
| 2026-05-08 00:00 | 21.56877 | -86.87268 | 19308 ft | 395 kts | 351° |
| 2026-05-08 00:00 | 21.59583 | -86.87797 | 19866 ft | 396 kts | 350° |
| 2026-05-08 00:01 | 21.62319 | -86.88332 | 20262 ft | 403 kts | 349° |
| 2026-05-08 00:01 | 21.65083 | -86.88872 | 20805 ft | 404 kts | 349° |
| 2026-05-08 00:01 | 21.67867 | -86.89415 | 21242 ft | 410 kts | 349° |
| 2026-05-08 00:01 | 21.70679 | -86.89965 | 21775 ft | 411 kts | 348° |
| 2026-05-08 00:02 | 21.73505 | -86.90518 | 22229 ft | 415 kts | 348° |
| 2026-05-08 00:02 | 21.76359 | -86.91075 | 22729 ft | 418 kts | 348° |
| 2026-05-08 00:02 | 21.79226 | -86.91637 | 23214 ft | 420 kts | 348° |
| 2026-05-08 00:02 | 21.82114 | -86.92202 | 23653 ft | 424 kts | 348° |
| 2026-05-08 00:03 | 21.85024 | -86.92768 | 24047 ft | 426 kts | 349° |
| 2026-05-08 00:03 | 21.87950 | -86.93043 | 24463 ft | 429 kts | 355° |
| 2026-05-08 00:03 | 21.90934 | -86.93258 | 24876 ft | 431 kts | 354° |
| 2026-05-08 00:03 | 21.93968 | -86.93500 | 25291 ft | 433 kts | 353° |
| 2026-05-08 00:04 | 21.96975 | -86.93754 | 25701 ft | 434 kts | 353° |
| 2026-05-08 00:04 | 21.99996 | -86.94014 | 26099 ft | 436 kts | 353° |
| 2026-05-08 00:04 | 22.03029 | -86.94277 | 26512 ft | 438 kts | 353° |
| 2026-05-08 00:04 | 22.06078 | -86.94541 | 26912 ft | 440 kts | 353° |
| 2026-05-08 00:05 | 22.09138 | -86.94806 | 27308 ft | 442 kts | 353° |
| 2026-05-08 00:05 | 22.12213 | -86.95074 | 27687 ft | 445 kts | 353° |
| 2026-05-08 00:05 | 22.15304 | -86.95342 | 28094 ft | 446 kts | 353° |
| 2026-05-08 00:05 | 22.18401 | -86.95611 | 28466 ft | 448 kts | 353° |
| 2026-05-08 00:06 | 22.21517 | -86.95882 | 28833 ft | 450 kts | 353° |
| 2026-05-08 00:06 | 22.24603 | -86.96151 | 29200 ft | 452 kts | 353° |
| 2026-05-08 00:06 | 22.27785 | -86.96428 | 29562 ft | 454 kts | 353° |
| 2026-05-08 00:06 | 22.30943 | -86.96703 | 29915 ft | 456 kts | 353° |
| 2026-05-08 00:07 | 22.34066 | -86.96975 | 30217 ft | 458 kts | 352° |
| 2026-05-08 00:07 | 22.37250 | -86.97253 | 30516 ft | 460 kts | 352° |
| 2026-05-08 00:07 | 22.40442 | -86.97531 | 30816 ft | 461 kts | 352° |
| 2026-05-08 00:07 | 22.43646 | -86.97810 | 31115 ft | 463 kts | 352° |
| 2026-05-08 00:08 | 22.46861 | -86.98091 | 31417 ft | 464 kts | 352° |
| 2026-05-08 00:08 | 22.50084 | -86.98372 | 31701 ft | 466 kts | 352° |
| 2026-05-08 00:08 | 22.53323 | -86.98655 | 31979 ft | 468 kts | 352° |
| 2026-05-08 00:08 | 22.56572 | -86.98939 | 32260 ft | 469 kts | 352° |
| 2026-05-08 00:09 | 22.59836 | -86.99225 | 32543 ft | 471 kts | 352° |
| 2026-05-08 00:09 | 22.63098 | -86.99510 | 32907 ft | 470 kts | 352° |
| 2026-05-08 00:09 | 22.66357 | -86.99795 | 33306 ft | 469 kts | 352° |
| 2026-05-08 00:09 | 22.69603 | -87.00080 | 33721 ft | 467 kts | 352° |
| 2026-05-08 00:10 | 22.72844 | -87.00363 | 34004 ft | 468 kts | 352° |
| 2026-05-08 00:10 | 22.76087 | -87.00648 | 34025 ft | 466 kts | 352° |
| 2026-05-08 00:10 | 22.82527 | -87.01212 | 34022 ft | 464 kts | 352° |
| 2026-05-08 00:11 | 22.88971 | -87.01778 | 34020 ft | 464 kts | 352° |
| 2026-05-08 00:11 | 22.95414 | -87.02345 | 34021 ft | 464 kts | 352° |
| 2026-05-08 00:12 | 23.01856 | -87.02912 | 34020 ft | 464 kts | 351° |
| 2026-05-08 00:12 | 23.05004 | -87.03530 | 34003 ft | 456 kts | 337° |
| 2026-05-08 00:12 | 23.07829 | -87.05006 | 34024 ft | 448 kts | 323° |
| 2026-05-08 00:13 | 23.12948 | -87.08878 | 34018 ft | 448 kts | 321° |
| 2026-05-08 00:13 | 23.17991 | -87.12869 | 34022 ft | 448 kts | 320° |
| 2026-05-08 00:14 | 23.23006 | -87.16901 | 34026 ft | 448 kts | 320° |
| 2026-05-08 00:14 | 23.28014 | -87.20939 | 34026 ft | 448 kts | 320° |
| 2026-05-08 00:15 | 23.33020 | -87.24982 | 34025 ft | 448 kts | 320° |
| 2026-05-08 00:15 | 23.38021 | -87.29024 | 34026 ft | 448 kts | 320° |
| 2026-05-08 00:16 | 23.43025 | -87.33071 | 34029 ft | 448 kts | 320° |
| 2026-05-08 00:16 | 23.48023 | -87.37119 | 34027 ft | 449 kts | 320° |
| 2026-05-08 00:17 | 23.53033 | -87.41180 | 34026 ft | 449 kts | 320° |
| 2026-05-08 00:17 | 23.58009 | -87.45217 | 34025 ft | 449 kts | 320° |
| 2026-05-08 00:18 | 23.63015 | -87.49283 | 34028 ft | 449 kts | 320° |
| 2026-05-08 00:18 | 23.68021 | -87.53351 | 34028 ft | 449 kts | 320° |
| 2026-05-08 00:19 | 23.72503 | -87.57945 | 34015 ft | 438 kts | 299° |
| 2026-05-08 00:19 | 23.74989 | -87.63966 | 34013 ft | 434 kts | 290° |
| 2026-05-08 00:20 | 23.77181 | -87.70106 | 34028 ft | 434 kts | 289° |
| 2026-05-08 00:20 | 23.79310 | -87.76276 | 34023 ft | 434 kts | 288° |
| 2026-05-08 00:21 | 23.81422 | -87.82448 | 34024 ft | 434 kts | 288° |
| 2026-05-08 00:21 | 23.83531 | -87.88626 | 34023 ft | 434 kts | 288° |
| 2026-05-08 00:22 | 23.85636 | -87.94802 | 34019 ft | 434 kts | 288° |
| 2026-05-08 00:22 | 23.87738 | -88.00979 | 34020 ft | 434 kts | 288° |
| 2026-05-08 00:23 | 23.89839 | -88.07159 | 34022 ft | 434 kts | 288° |
| 2026-05-08 00:23 | 23.91936 | -88.13340 | 34023 ft | 434 kts | 288° |
| 2026-05-08 00:24 | 23.93678 | -88.18480 | 34020 ft | 434 kts | 288° |
| 2026-05-08 00:24 | 23.95770 | -88.24663 | 34020 ft | 434 kts | 288° |
| 2026-05-08 00:25 | 23.97860 | -88.30848 | 34020 ft | 434 kts | 288° |
| 2026-05-08 00:25 | 23.99950 | -88.37042 | 34020 ft | 434 kts | 288° |
| 2026-05-08 00:26 | 24.02035 | -88.43231 | 34020 ft | 434 kts | 288° |
| 2026-05-08 00:26 | 24.04119 | -88.49427 | 34019 ft | 434 kts | 288° |
| 2026-05-08 00:27 | 24.06201 | -88.55625 | 34020 ft | 434 kts | 288° |
| 2026-05-08 00:27 | 24.08275 | -88.61810 | 34016 ft | 432 kts | 288° |
| 2026-05-08 00:28 | 24.10339 | -88.67976 | 34018 ft | 432 kts | 288° |
| 2026-05-08 00:28 | 24.12403 | -88.74150 | 34017 ft | 432 kts | 288° |
| 2026-05-08 00:29 | 24.14464 | -88.80323 | 34013 ft | 432 kts | 288° |
| 2026-05-08 00:29 | 24.16509 | -88.86461 | 33974 ft | 431 kts | 288° |
| 2026-05-08 00:30 | 24.18567 | -88.92644 | 33965 ft | 433 kts | 288° |
| 2026-05-08 00:30 | 24.20625 | -88.98836 | 33969 ft | 433 kts | 288° |
| 2026-05-08 00:31 | 24.22679 | -89.05027 | 33964 ft | 432 kts | 288° |
| 2026-05-08 00:31 | 24.24731 | -89.11222 | 33961 ft | 432 kts | 288° |
| 2026-05-08 00:32 | 24.26780 | -89.17419 | 33962 ft | 432 kts | 288° |
| 2026-05-08 00:32 | 24.28826 | -89.23613 | 33960 ft | 432 kts | 288° |
| 2026-05-08 00:33 | 24.30872 | -89.29818 | 33960 ft | 433 kts | 287° |
| 2026-05-08 00:33 | 24.32915 | -89.36024 | 33960 ft | 433 kts | 287° |
| 2026-05-08 00:34 | 24.34956 | -89.42235 | 33960 ft | 433 kts | 287° |
| 2026-05-08 00:34 | 24.36994 | -89.48442 | 33956 ft | 433 kts | 287° |
| 2026-05-08 00:35 | 24.39029 | -89.54654 | 33972 ft | 433 kts | 287° |
| 2026-05-08 00:35 | 24.41057 | -89.60852 | 33953 ft | 431 kts | 287° |
| 2026-05-08 00:36 | 24.43083 | -89.67050 | 33953 ft | 431 kts | 287° |
| 2026-05-08 00:36 | 24.45102 | -89.73237 | 33956 ft | 431 kts | 287° |
| 2026-05-08 00:37 | 24.47121 | -89.79435 | 33954 ft | 431 kts | 287° |
| 2026-05-08 00:37 | 24.48365 | -89.82438 | 33943 ft | 435 kts | 300° |
| 2026-05-08 00:38 | 24.52778 | -89.87064 | 33965 ft | 448 kts | 319° |
| 2026-05-08 00:38 | 24.57846 | -89.91051 | 33959 ft | 449 kts | 320° |
| 2026-05-08 00:39 | 24.62962 | -89.94985 | 33959 ft | 449 kts | 320° |
| 2026-05-08 00:39 | 24.68086 | -89.98907 | 33964 ft | 449 kts | 320° |
| 2026-05-08 00:40 | 24.73219 | -90.02840 | 33963 ft | 451 kts | 320° |
| 2026-05-08 00:40 | 24.78363 | -90.06784 | 33960 ft | 451 kts | 320° |
| 2026-05-08 00:41 | 24.83505 | -90.10730 | 33961 ft | 451 kts | 320° |
| 2026-05-08 00:41 | 24.88649 | -90.14682 | 33962 ft | 451 kts | 320° |
| 2026-05-08 00:42 | 24.93788 | -90.18634 | 33960 ft | 451 kts | 320° |
| 2026-05-08 00:42 | 24.98929 | -90.22592 | 33961 ft | 450 kts | 320° |
| 2026-05-08 00:43 | 25.04030 | -90.26524 | 33968 ft | 451 kts | 320° |
| 2026-05-08 00:43 | 25.09171 | -90.30490 | 33964 ft | 451 kts | 320° |
| 2026-05-08 00:44 | 25.14307 | -90.34456 | 33963 ft | 451 kts | 320° |
| 2026-05-08 00:44 | 25.19446 | -90.38430 | 33964 ft | 451 kts | 320° |
| 2026-05-08 00:45 | 25.24595 | -90.42415 | 33965 ft | 453 kts | 320° |
| 2026-05-08 00:45 | 25.29751 | -90.46408 | 33961 ft | 453 kts | 320° |
| 2026-05-08 00:46 | 25.34904 | -90.50405 | 33972 ft | 452 kts | 320° |
| 2026-05-08 00:46 | 25.40050 | -90.54400 | 33966 ft | 451 kts | 320° |
| 2026-05-08 00:47 | 25.45190 | -90.58395 | 33963 ft | 451 kts | 320° |
| 2026-05-08 00:47 | 25.50327 | -90.62392 | 33963 ft | 451 kts | 320° |
| 2026-05-08 00:48 | 25.55462 | -90.66392 | 33972 ft | 451 kts | 320° |
| 2026-05-08 00:48 | 25.60601 | -90.70399 | 33969 ft | 451 kts | 319° |
| 2026-05-08 00:49 | 25.65732 | -90.74404 | 33981 ft | 450 kts | 319° |
| 2026-05-08 00:49 | 25.70839 | -90.78394 | 33970 ft | 449 kts | 319° |
| 2026-05-08 00:50 | 25.75944 | -90.82387 | 33969 ft | 449 kts | 319° |
| 2026-05-08 00:50 | 25.81046 | -90.86382 | 33972 ft | 449 kts | 319° |
| 2026-05-08 00:51 | 25.86149 | -90.90382 | 33972 ft | 449 kts | 319° |
| 2026-05-08 00:51 | 25.91250 | -90.94385 | 33970 ft | 449 kts | 319° |
| 2026-05-08 00:52 | 25.96348 | -90.98390 | 33986 ft | 449 kts | 319° |
| 2026-05-08 00:52 | 26.01443 | -91.02397 | 33974 ft | 448 kts | 319° |
| 2026-05-08 00:53 | 26.06533 | -91.06404 | 33974 ft | 448 kts | 319° |
| 2026-05-08 00:53 | 26.11622 | -91.10416 | 33970 ft | 448 kts | 319° |
| 2026-05-08 00:54 | 26.16711 | -91.14430 | 33974 ft | 448 kts | 319° |
| 2026-05-08 00:54 | 26.21803 | -91.18453 | 33971 ft | 449 kts | 318° |
| 2026-05-08 00:55 | 26.26865 | -91.22455 | 33996 ft | 449 kts | 318° |
| 2026-05-08 00:55 | 26.31957 | -91.26486 | 33973 ft | 448 kts | 318° |
| 2026-05-08 00:56 | 26.37041 | -91.30515 | 33973 ft | 449 kts | 318° |
| 2026-05-08 00:56 | 26.42130 | -91.34553 | 33973 ft | 449 kts | 318° |
| 2026-05-08 00:57 | 26.47217 | -91.38593 | 33970 ft | 449 kts | 318° |
| 2026-05-08 00:57 | 26.52302 | -91.42636 | 33983 ft | 449 kts | 318° |
| 2026-05-08 00:58 | 26.57384 | -91.46681 | 33988 ft | 449 kts | 317° |
| 2026-05-08 00:58 | 26.62468 | -91.50732 | 33977 ft | 449 kts | 317° |
| 2026-05-08 00:59 | 26.67549 | -91.54786 | 33979 ft | 449 kts | 317° |
| 2026-05-08 00:59 | 26.72628 | -91.58842 | 33974 ft | 449 kts | 317° |
| 2026-05-08 01:00 | 26.77705 | -91.62901 | 33978 ft | 448 kts | 317° |
| 2026-05-08 01:00 | 26.82779 | -91.66963 | 33980 ft | 449 kts | 317° |
| 2026-05-08 01:01 | 26.87854 | -91.71030 | 33989 ft | 448 kts | 317° |
| 2026-05-08 01:01 | 26.92916 | -91.75090 | 33975 ft | 447 kts | 317° |
| 2026-05-08 01:02 | 26.97973 | -91.79151 | 33974 ft | 447 kts | 317° |
| 2026-05-08 01:02 | 27.03027 | -91.83213 | 33974 ft | 447 kts | 317° |
| 2026-05-08 01:03 | 27.08085 | -91.87283 | 33974 ft | 447 kts | 317° |
| 2026-05-08 01:03 | 27.13136 | -91.91353 | 33977 ft | 447 kts | 317° |
| 2026-05-08 01:04 | 27.18102 | -91.95515 | 33969 ft | 440 kts | 310° |
| 2026-05-08 01:04 | 27.22674 | -92.00021 | 33974 ft | 441 kts | 312° |
| 2026-05-08 01:05 | 27.27329 | -92.04514 | 33972 ft | 441 kts | 312° |
| 2026-05-08 01:05 | 27.31989 | -92.09000 | 33973 ft | 441 kts | 312° |
| 2026-05-08 01:06 | 27.36650 | -92.13491 | 33973 ft | 441 kts | 312° |
| 2026-05-08 01:06 | 27.41310 | -92.17987 | 33971 ft | 441 kts | 312° |
| 2026-05-08 01:07 | 27.45970 | -92.22488 | 33990 ft | 441 kts | 311° |
| 2026-05-08 01:07 | 27.50627 | -92.26990 | 33973 ft | 441 kts | 311° |
| 2026-05-08 01:08 | 27.55283 | -92.31498 | 33973 ft | 442 kts | 311° |
| 2026-05-08 01:08 | 27.59940 | -92.36012 | 33972 ft | 442 kts | 311° |
| 2026-05-08 01:09 | 27.64597 | -92.40530 | 33969 ft | 441 kts | 311° |
| 2026-05-08 01:09 | 27.69251 | -92.45051 | 33968 ft | 441 kts | 311° |
| 2026-05-08 01:10 | 27.73900 | -92.49572 | 33974 ft | 441 kts | 311° |
| 2026-05-08 01:10 | 27.77765 | -92.53336 | 33975 ft | 442 kts | 311° |
| 2026-05-08 01:11 | 27.82416 | -92.57869 | 33977 ft | 441 kts | 311° |
| 2026-05-08 01:11 | 27.87061 | -92.62401 | 33977 ft | 441 kts | 311° |
| 2026-05-08 01:12 | 27.91707 | -92.66940 | 33980 ft | 441 kts | 311° |
| 2026-05-08 01:12 | 27.96348 | -92.71480 | 33980 ft | 441 kts | 311° |
| 2026-05-08 01:13 | 28.00990 | -92.76025 | 33980 ft | 441 kts | 311° |
| 2026-05-08 01:13 | 28.05627 | -92.80573 | 33996 ft | 441 kts | 311° |
| 2026-05-08 01:14 | 28.10259 | -92.85118 | 33984 ft | 440 kts | 311° |
| 2026-05-08 01:14 | 28.14890 | -92.89669 | 33982 ft | 441 kts | 311° |
| 2026-05-08 01:15 | 28.19520 | -92.94225 | 33988 ft | 441 kts | 311° |
| 2026-05-08 01:15 | 28.24148 | -92.98784 | 33984 ft | 441 kts | 311° |
| 2026-05-08 01:16 | 28.28772 | -93.03345 | 33989 ft | 440 kts | 311° |
| 2026-05-08 01:16 | 28.33395 | -93.07910 | 33991 ft | 441 kts | 311° |
| 2026-05-08 01:17 | 28.38022 | -93.12484 | 33993 ft | 441 kts | 311° |
| 2026-05-08 01:17 | 28.42645 | -93.17061 | 33994 ft | 441 kts | 311° |
| 2026-05-08 01:18 | 28.47270 | -93.21644 | 33991 ft | 441 kts | 311° |
| 2026-05-08 01:18 | 28.51889 | -93.26227 | 33996 ft | 441 kts | 311° |
| 2026-05-08 01:19 | 28.56510 | -93.30817 | 33995 ft | 441 kts | 311° |
| 2026-05-08 01:19 | 28.61124 | -93.35406 | 33996 ft | 441 kts | 311° |
| 2026-05-08 01:20 | 28.65692 | -93.39955 | 34011 ft | 437 kts | 311° |
| 2026-05-08 01:20 | 28.70256 | -93.44505 | 33998 ft | 436 kts | 311° |
| 2026-05-08 01:21 | 28.74818 | -93.49059 | 33996 ft | 436 kts | 311° |
| 2026-05-08 01:21 | 28.79376 | -93.53615 | 33998 ft | 436 kts | 311° |
| 2026-05-08 01:22 | 28.83933 | -93.58175 | 34001 ft | 436 kts | 311° |
| 2026-05-08 01:22 | 28.88489 | -93.62738 | 34001 ft | 436 kts | 311° |
| 2026-05-08 01:23 | 28.93043 | -93.67305 | 34006 ft | 435 kts | 310° |
| 2026-05-08 01:23 | 28.97585 | -93.71866 | 34001 ft | 435 kts | 310° |
| 2026-05-08 01:24 | 29.02105 | -93.76408 | 33398 ft | 430 kts | 310° |
| 2026-05-08 01:24 | 29.04330 | -93.78696 | 32506 ft | 432 kts | 309° |
| 2026-05-08 01:24 | 29.06554 | -93.81023 | 31676 ft | 434 kts | 310° |
| 2026-05-08 01:24 | 29.08791 | -93.83354 | 30924 ft | 435 kts | 310° |
| 2026-05-08 01:25 | 29.11016 | -93.85673 | 30374 ft | 431 kts | 310° |
| 2026-05-08 01:25 | 29.13218 | -93.87969 | 29791 ft | 426 kts | 310° |
| 2026-05-08 01:25 | 29.15400 | -93.90245 | 29158 ft | 423 kts | 310° |
| 2026-05-08 01:25 | 29.17564 | -93.92503 | 28544 ft | 419 kts | 310° |
| 2026-05-08 01:26 | 29.19708 | -93.94743 | 27975 ft | 416 kts | 310° |
| 2026-05-08 01:26 | 29.21837 | -93.96968 | 27443 ft | 412 kts | 310° |
| 2026-05-08 01:26 | 29.23941 | -93.99167 | 26886 ft | 408 kts | 310° |
| 2026-05-08 01:26 | 29.26030 | -94.01353 | 26329 ft | 406 kts | 310° |
| 2026-05-08 01:27 | 29.28104 | -94.03524 | 25785 ft | 403 kts | 310° |
| 2026-05-08 01:27 | 29.30165 | -94.05682 | 25315 ft | 399 kts | 310° |
| 2026-05-08 01:27 | 29.32199 | -94.07816 | 24909 ft | 394 kts | 310° |
| 2026-05-08 01:27 | 29.34206 | -94.09922 | 24522 ft | 388 kts | 310° |
| 2026-05-08 01:28 | 29.36185 | -94.11999 | 24143 ft | 384 kts | 310° |
| 2026-05-08 01:28 | 29.38148 | -94.14063 | 23681 ft | 382 kts | 310° |
| 2026-05-08 01:28 | 29.40102 | -94.16117 | 23165 ft | 380 kts | 310° |
| 2026-05-08 01:28 | 29.42043 | -94.18158 | 22698 ft | 377 kts | 310° |
| 2026-05-08 01:29 | 29.43964 | -94.20179 | 22226 ft | 374 kts | 310° |
| 2026-05-08 01:29 | 29.45874 | -94.22191 | 21752 ft | 371 kts | 310° |
| 2026-05-08 01:29 | 29.47771 | -94.24189 | 21330 ft | 368 kts | 310° |
| 2026-05-08 01:29 | 29.49647 | -94.26166 | 20964 ft | 364 kts | 310° |
| 2026-05-08 01:30 | 29.51502 | -94.28122 | 20511 ft | 361 kts | 310° |
| 2026-05-08 01:30 | 29.53075 | -94.30284 | 20088 ft | 346 kts | 293° |
| 2026-05-08 01:30 | 29.54169 | -94.32716 | 19631 ft | 343 kts | 291° |
| 2026-05-08 01:30 | 29.55249 | -94.35141 | 19237 ft | 340 kts | 291° |
| 2026-05-08 01:31 | 29.56308 | -94.37557 | 18821 ft | 338 kts | 291° |
| 2026-05-08 01:31 | 29.57336 | -94.39929 | 18438 ft | 335 kts | 290° |
| 2026-05-08 01:31 | 29.58365 | -94.42319 | 17997 ft | 333 kts | 290° |
| 2026-05-08 01:31 | 29.59388 | -94.44702 | 17493 ft | 333 kts | 291° |
| 2026-05-08 01:32 | 29.60410 | -94.47088 | 16998 ft | 332 kts | 291° |
| 2026-05-08 01:32 | 29.61428 | -94.49465 | 16523 ft | 332 kts | 291° |
| 2026-05-08 01:32 | 29.62449 | -94.51843 | 16031 ft | 332 kts | 291° |
| 2026-05-08 01:32 | 29.63467 | -94.54218 | 15579 ft | 331 kts | 291° |
| 2026-05-08 01:33 | 29.64485 | -94.56592 | 15126 ft | 331 kts | 292° |
| 2026-05-08 01:33 | 29.65501 | -94.58963 | 14691 ft | 330 kts | 292° |
| 2026-05-08 01:33 | 29.66513 | -94.61327 | 14270 ft | 329 kts | 292° |
| 2026-05-08 01:33 | 29.67519 | -94.63678 | 13713 ft | 328 kts | 292° |
| 2026-05-08 01:34 | 29.68525 | -94.66030 | 13051 ft | 327 kts | 293° |
| 2026-05-08 01:34 | 29.69527 | -94.68375 | 12413 ft | 328 kts | 293° |
| 2026-05-08 01:34 | 29.70531 | -94.70725 | 12069 ft | 325 kts | 293° |
| 2026-05-08 01:34 | 29.71509 | -94.73021 | 11968 ft | 314 kts | 293° |
| 2026-05-08 01:35 | 29.72457 | -94.75245 | 11808 ft | 305 kts | 293° |
| 2026-05-08 01:35 | 29.73376 | -94.77403 | 11679 ft | 296 kts | 293° |
| 2026-05-08 01:35 | 29.74265 | -94.79492 | 11567 ft | 286 kts | 294° |
| 2026-05-08 01:35 | 29.75129 | -94.81523 | 11358 ft | 280 kts | 294° |
| 2026-05-08 01:36 | 29.75976 | -94.83514 | 11012 ft | 281 kts | 294° |
| 2026-05-08 01:36 | 29.76699 | -94.85587 | 10696 ft | 281 kts | 289° |
| 2026-05-08 01:36 | 29.77479 | -94.87671 | 10865 ft | 284 kts | 293° |
| 2026-05-08 01:36 | 29.78297 | -94.89675 | 11135 ft | 269 kts | 293° |
| 2026-05-08 01:37 | 29.79098 | -94.91617 | 10821 ft | 273 kts | 294° |
| 2026-05-08 01:37 | 29.79915 | -94.93637 | 10294 ft | 283 kts | 294° |
| 2026-05-08 01:37 | 29.80749 | -94.95726 | 9757 ft | 291 kts | 293° |
| 2026-05-08 01:37 | 29.81614 | -94.97858 | 9162 ft | 299 kts | 294° |
| 2026-05-08 01:38 | 29.82503 | -95.00058 | 8634 ft | 303 kts | 294° |
| 2026-05-08 01:38 | 29.83387 | -95.02244 | 8241 ft | 298 kts | 294° |
| 2026-05-08 01:38 | 29.84243 | -95.04382 | 7926 ft | 290 kts | 294° |
| 2026-05-08 01:38 | 29.85083 | -95.06467 | 7625 ft | 283 kts | 294° |
| 2026-05-08 01:39 | 29.85910 | -95.08492 | 7328 ft | 277 kts | 299° |
| 2026-05-08 01:39 | 29.86914 | -95.10362 | 7030 ft | 271 kts | 296° |
| 2026-05-08 01:39 | 29.87574 | -95.12393 | 6772 ft | 272 kts | 286° |
| 2026-05-08 01:39 | 29.88094 | -95.14499 | 6526 ft | 273 kts | 284° |
| 2026-05-08 01:40 | 29.88577 | -95.16618 | 6272 ft | 274 kts | 283° |
| 2026-05-08 01:40 | 29.89030 | -95.18750 | 6048 ft | 272 kts | 279° |
| 2026-05-08 01:40 | 29.89157 | -95.20881 | 6035 ft | 270 kts | 269° |
| 2026-05-08 01:40 | 29.89163 | -95.23075 | 6001 ft | 270 kts | 269° |
| 2026-05-08 01:41 | 29.89171 | -95.25243 | 5999 ft | 271 kts | 269° |
| 2026-05-08 01:41 | 29.89177 | -95.27385 | 5994 ft | 271 kts | 269° |
| 2026-05-08 01:41 | 29.89184 | -95.29533 | 5985 ft | 263 kts | 269° |
| 2026-05-08 01:41 | 29.89191 | -95.31612 | 5796 ft | 258 kts | 269° |
| 2026-05-08 01:42 | 29.89197 | -95.33669 | 5561 ft | 255 kts | 269° |
| 2026-05-08 01:42 | 29.89203 | -95.35708 | 5318 ft | 253 kts | 269° |
| 2026-05-08 01:42 | 29.89208 | -95.37731 | 5085 ft | 251 kts | 269° |
| 2026-05-08 01:42 | 29.89213 | -95.39708 | 4883 ft | 246 kts | 268° |
| 2026-05-08 01:43 | 29.89217 | -95.41672 | 4646 ft | 243 kts | 269° |
| 2026-05-08 01:43 | 29.89221 | -95.43503 | 4520 ft | 234 kts | 268° |
| 2026-05-08 01:43 | 29.89227 | -95.45343 | 4377 ft | 226 kts | 268° |
| 2026-05-08 01:43 | 29.89221 | -95.47113 | 4243 ft | 218 kts | 267° |
| 2026-05-08 01:44 | 29.89194 | -95.48819 | 4101 ft | 211 kts | 267° |
| 2026-05-08 01:44 | 29.89167 | -95.50498 | 3980 ft | 208 kts | 267° |
| 2026-05-08 01:44 | 29.89139 | -95.52154 | 3799 ft | 205 kts | 267° |
| 2026-05-08 01:44 | 29.89305 | -95.53769 | 3498 ft | 206 kts | 295° |
| 2026-05-08 01:45 | 29.89894 | -95.54608 | 3289 ft | 204 kts | 327° |
| 2026-05-08 01:45 | 29.91638 | -95.55131 | 3006 ft | 191 kts | 358° |
| 2026-05-08 01:45 | 29.92943 | -95.55266 | 2784 ft | 188 kts | 358° |
| 2026-05-08 01:45 | 29.94236 | -95.55399 | 2562 ft | 185 kts | 0° |
| 2026-05-08 01:46 | 29.95517 | -95.55451 | 2471 ft | 183 kts | 4° |
| 2026-05-08 01:46 | 29.96713 | -95.55135 | 2432 ft | 174 kts | 34° |
| 2026-05-08 01:46 | 29.97730 | -95.54367 | 2519 ft | 175 kts | 38° |
| 2026-05-08 01:46 | 29.98690 | -95.53511 | 2504 ft | 172 kts | 51° |
| 2026-05-08 01:47 | 29.99162 | -95.52325 | 2438 ft | 161 kts | 84° |
| 2026-05-08 01:47 | 29.99258 | -95.51026 | 2496 ft | 164 kts | 89° |
| 2026-05-08 01:47 | 29.99309 | -95.49711 | 2440 ft | 163 kts | 90° |
| 2026-05-08 01:48 | 29.99336 | -95.47123 | 2061 ft | 159 kts | 91° |
| 2026-05-08 01:48 | 29.99340 | -95.45860 | 1876 ft | 155 kts | 90° |
| 2026-05-08 01:48 | 29.99341 | -95.44621 | 1662 ft | 154 kts | 90° |
| 2026-05-08 01:48 | 29.99342 | -95.43404 | 1444 ft | 145 kts | 89° |
| 2026-05-08 01:49 | 29.99343 | -95.42280 | 1252 ft | 137 kts | 88° |
| 2026-05-08 01:49 | 29.99344 | -95.41200 | 1078 ft | 134 kts | 89° |
| 2026-05-08 01:49 | 29.99342 | -95.40118 | 900 ft | 137 kts | 88° |
| 2026-05-08 01:49 | 29.99338 | -95.39008 | 766 ft | 139 kts | 87° |
| 2026-05-08 01:50 | 29.99329 | -95.37882 | 541 ft | 142 kts | 86° |
| 2026-05-08 01:50 | 29.99340 | -95.36742 | 347 ft | 142 kts | 87° |
| 2026-05-08 01:50 | 29.99336 | -95.35618 | 188 ft | 137 kts | 86° |
| 2026-05-08 01:50 | 29.99344 | -95.34580 | 109 ft | 110 kts | 90° |
| 2026-05-08 01:51 | 29.99344 | -95.33932 | 107 ft | 55 kts | 90° |
| 2026-05-08 01:51 | 29.99346 | -95.33566 | 111 ft | 44 kts | 94° |
| 2026-05-08 01:51 | 29.99303 | -95.33288 | 110 ft | 28 kts | 112° |
| 2026-05-08 01:51 | 29.99250 | -95.33170 | 110 ft | 11 kts | 120° |
| 2026-05-08 01:52 | 29.99227 | -95.33123 | 109 ft | 3 kts | 119° |
| 2026-05-08 01:52 | 29.99222 | -95.33114 | 109 ft | 3 kts | 119° |
| 2026-05-08 01:52 | 29.99207 | -95.33083 | 109 ft | 6 kts | 119° |
| 2026-05-08 01:52 | 29.99167 | -95.33036 | 109 ft | 11 kts | 158° |
| 2026-05-08 01:53 | 29.99091 | -95.33076 | 109 ft | 17 kts | 260° |
| 2026-05-08 01:53 | 29.99089 | -95.33239 | 109 ft | 24 kts | 270° |
| 2026-05-08 01:53 | 29.99088 | -95.33460 | 109 ft | 31 kts | 269° |
| 2026-05-08 01:53 | 29.99090 | -95.33737 | 109 ft | 38 kts | 269° |
| 2026-05-08 01:54 | 29.99088 | -95.34012 | 110 ft | 34 kts | 269° |
| 2026-05-08 01:54 | 29.99086 | -95.34284 | 110 ft | 30 kts | 269° |
| 2026-05-08 01:54 | 29.99085 | -95.34514 | 110 ft | 29 kts | 270° |
| 2026-05-08 01:54 | 29.99085 | -95.34749 | 109 ft | 21 kts | 270° |
| 2026-05-08 01:55 | 29.99086 | -95.34920 | 109 ft | 18 kts | 271° |
| 2026-05-08 01:55 | 29.99090 | -95.35046 | 109 ft | 17 kts | 272° |
| 2026-05-08 01:55 | 29.99092 | -95.35190 | 109 ft | 19 kts | 268° |
| 2026-05-08 01:55 | 29.99007 | -95.35280 | 109 ft | 20 kts | 185° |
| 2026-05-08 01:56 | 29.98857 | -95.35280 | 109 ft | 23 kts | 175° |
| 2026-05-08 01:56 | 29.98688 | -95.35275 | 109 ft | 25 kts | 181° |
| 2026-05-08 01:56 | 29.98515 | -95.35274 | 109 ft | 24 kts | 171° |
| 2026-05-08 01:56 | 29.98386 | -95.35190 | 109 ft | 18 kts | 123° |
| 2026-05-08 01:57 | 29.98380 | -95.35095 | 109 ft | 19 kts | 89° |
| 2026-05-08 01:57 | 29.98380 | -95.34933 | 110 ft | 21 kts | 91° |
| 2026-05-08 01:57 | 29.98378 | -95.34751 | 110 ft | 24 kts | 90° |
| 2026-05-08 01:57 | 29.98378 | -95.34550 | 110 ft | 26 kts | 90° |
| 2026-05-08 01:58 | 29.98377 | -95.34332 | 110 ft | 28 kts | 91° |
| 2026-05-08 01:58 | 29.98371 | -95.34107 | 110 ft | 24 kts | 103° |
| 2026-05-08 01:58 | 29.98318 | -95.33919 | 110 ft | 26 kts | 88° |
| 2026-05-08 01:58 | 29.98322 | -95.33704 | 110 ft | 27 kts | 94° |
| 2026-05-08 01:59 | 29.98300 | -95.33501 | 110 ft | 23 kts | 93° |
| 2026-05-08 01:59 | 29.98356 | -95.33390 | 110 ft | 14 kts | 352° |
| 2026-05-08 01:59 | 29.98447 | -95.33402 | 110 ft | 9 kts | 359° |
| 2026-05-08 01:59 | 29.98499 | -95.33426 | 110 ft | 8 kts | 323° |
| 2026-05-08 02:00 | 29.98516 | -95.33440 | 110 ft | 0 kts | 324° |
| 2026-05-08 02:00 | 29.98517 | -95.33440 | 110 ft | 0 kts | 324° |